createdAt,value
2022-12-25T00:00:42.656Z,101436.25
2022-12-25T00:03:09.482Z,101433.53
2022-12-25T00:05:38.851Z,101424.75
2022-12-25T00:08:06.436Z,101426.19
2022-12-25T00:10:33.566Z,101419.06
2022-12-25T00:13:00.001Z,101420.81
2022-12-25T00:15:26.510Z,101418.19
2022-12-25T00:17:53.138Z,101415.97
2022-12-25T00:20:20.908Z,101419.94
2022-12-25T00:22:47.323Z,101411.00
2022-12-25T00:25:13.689Z,101407.31
2022-12-25T00:27:40.173Z,101394.97
2022-12-25T00:30:07.900Z,101397.34
2022-12-25T00:32:37.528Z,101401.38
2022-12-25T00:35:05.327Z,101409.22
2022-12-25T00:37:31.691Z,101411.97
2022-12-25T00:39:58.062Z,101411.63
2022-12-25T00:42:26.870Z,101399.47
2022-12-25T00:44:53.314Z,101390.00
2022-12-25T00:47:19.845Z,101385.47
2022-12-25T00:49:46.344Z,101395.94
2022-12-25T00:52:13.058Z,101399.13
2022-12-25T00:54:39.450Z,101406.84
2022-12-25T00:57:05.803Z,101390.22
2022-12-25T00:59:33.838Z,101401.13
2022-12-25T01:02:19.033Z,101402.09
2022-12-25T01:04:45.672Z,101402.94
2022-12-25T01:07:12.355Z,101402.22
2022-12-25T01:09:58.437Z,101403.63
2022-12-25T01:12:24.854Z,101400.19
2022-12-25T01:14:51.245Z,101407.34
2022-12-25T01:17:17.831Z,101409.56
2022-12-25T01:19:44.272Z,101404.13
2022-12-25T01:22:10.696Z,101404.22
2022-12-25T01:24:37.098Z,101411.00
2022-12-25T01:27:03.496Z,101414.59
2022-12-25T01:29:29.874Z,101418.84
2022-12-25T01:31:56.415Z,101420.63
2022-12-25T01:34:22.796Z,101423.03
2022-12-25T01:36:49.149Z,101421.22
2022-12-25T01:39:15.621Z,101413.28
2022-12-25T01:41:41.984Z,101418.50
2022-12-25T01:44:28.315Z,101418.34
2022-12-25T01:46:54.684Z,101415.28
2022-12-25T01:49:25.581Z,101420.97
2022-12-25T01:51:56.655Z,101407.91
2022-12-25T01:54:28.927Z,101402.44
2022-12-25T01:57:00.670Z,101408.03
2022-12-25T01:59:28.832Z,101415.75
2022-12-25T02:01:56.352Z,101418.50
2022-12-25T02:04:41.282Z,101415.75
2022-12-25T02:07:15.256Z,101417.53
2022-12-25T02:09:42.746Z,101426.59
2022-12-25T02:12:14.790Z,101429.09
2022-12-25T02:14:41.194Z,101430.38
2022-12-25T02:17:27.236Z,101431.94
2022-12-25T02:20:16.466Z,101427.41
2022-12-25T02:22:59.262Z,101434.31
2022-12-25T02:25:47.632Z,101425.75
2022-12-25T02:28:25.862Z,101429.09
2022-12-25T02:30:58.648Z,101423.00
2022-12-25T02:34:00.416Z,101419.56
2022-12-25T02:36:38.702Z,101420.53
2022-12-25T02:39:34.135Z,101416.94
2022-12-25T02:42:04.697Z,101428.38
2022-12-25T02:44:52.451Z,101416.13
2022-12-25T02:47:45.569Z,101423.00
2022-12-25T02:50:33.582Z,101426.69
2022-12-25T02:53:21.848Z,101417.31
2022-12-25T02:56:08.990Z,101416.13
2022-12-25T02:58:57.628Z,101407.56
2022-12-25T03:01:57.312Z,101402.31
2022-12-25T03:04:44.641Z,101386.63
2022-12-25T03:07:18.474Z,101384.94
2022-12-25T03:10:11.339Z,101391.03
2022-12-25T03:12:55.152Z,101387.56
2022-12-25T03:15:40.819Z,101375.69
2022-12-25T03:18:12.233Z,101372.84
2022-12-25T03:20:57.574Z,101366.03
2022-12-25T03:23:50.120Z,101363.19
2022-12-25T03:26:35.744Z,101350.69
2022-12-25T03:29:02.200Z,101342.25
2022-12-25T03:31:37.322Z,101332.63
2022-12-25T03:34:49.890Z,101331.69
2022-12-25T03:37:32.354Z,101335.34
2022-12-25T03:40:26.379Z,101342.16
2022-12-25T03:43:18.544Z,101332.63
2022-12-25T03:46:10.420Z,101328.25
2022-12-25T03:49:02.189Z,101340.84
2022-12-25T03:51:54.193Z,101331.56
2022-12-25T03:54:44.043Z,101330.72
2022-12-25T03:57:40.961Z,101347.13
2022-12-25T04:00:26.632Z,101351.41
2022-12-25T04:03:19.041Z,101347.00
2022-12-25T04:06:04.018Z,101345.91
2022-12-25T04:08:48.887Z,101349.81
2022-12-25T04:11:33.758Z,101339.25
2022-12-25T04:14:18.571Z,101334.13
2022-12-25T04:17:03.348Z,101337.59
2022-12-25T04:19:48.211Z,101344.75
2022-12-25T04:22:32.976Z,101339.25
2022-12-25T04:25:17.800Z,101349.72
2022-12-25T04:28:02.592Z,101348.06
2022-12-25T04:30:47.710Z,101352.59
2022-12-25T04:33:32.970Z,101362.09
2022-12-25T04:36:12.457Z,101368.66
2022-12-25T04:38:40.066Z,101363.19
2022-12-25T04:41:07.875Z,101370.66
2022-12-25T04:43:34.338Z,101368.84
2022-12-25T04:46:02.172Z,101372.78
2022-12-25T04:48:31.622Z,101359.69
2022-12-25T04:50:58.501Z,101360.16
2022-12-25T04:53:25.371Z,101359.88
2022-12-25T04:56:01.063Z,101360.13
2022-12-25T04:58:27.431Z,101350.59
2022-12-25T05:00:53.794Z,101339.31
2022-12-25T05:03:20.353Z,101331.69
2022-12-25T05:05:48.477Z,101331.44
2022-12-25T05:08:14.928Z,101328.25
2022-12-25T05:10:41.434Z,101325.31
2022-12-25T05:13:07.778Z,101330.66
2022-12-25T05:15:36.112Z,101333.91
2022-12-25T05:18:02.602Z,101338.88
2022-12-25T05:20:31.227Z,101339.44
2022-12-25T05:23:01.088Z,101325.78
2022-12-25T05:25:27.627Z,101317.00
2022-12-25T05:27:54.306Z,101316.50
2022-12-25T05:30:20.705Z,101317.59
2022-12-25T05:32:48.163Z,101322.72
2022-12-25T05:35:14.944Z,101324.16
2022-12-25T05:37:41.363Z,101320.25
2022-12-25T05:40:08.537Z,101307.31
2022-12-25T05:42:34.908Z,101306.34
2022-12-25T05:45:01.295Z,101306.03
2022-12-25T05:47:27.719Z,101310.06
2022-12-25T05:49:54.065Z,101312.22
2022-12-25T05:52:20.395Z,101306.88
2022-12-25T05:54:46.999Z,101304.75
2022-12-25T05:57:13.399Z,101294.19
2022-12-25T05:59:39.709Z,101281.81
2022-12-25T06:02:06.404Z,101274.56
2022-12-25T06:04:32.848Z,101278.84
2022-12-25T06:06:59.192Z,101278.66
2022-12-25T06:09:25.696Z,101286.09
2022-12-25T06:11:52.080Z,101292.72
2022-12-25T06:14:18.471Z,101295.47
2022-12-25T06:16:44.928Z,101285.84
2022-12-25T06:19:13.655Z,101279.22
2022-12-25T06:21:39.969Z,101282.78
2022-12-25T06:24:06.736Z,101280.50
2022-12-25T06:26:36.271Z,101268.75
2022-12-25T06:29:02.905Z,101253.63
2022-12-25T06:31:29.816Z,101260.06
2022-12-25T06:33:56.229Z,101276.22
2022-12-25T06:36:25.814Z,101272.19
2022-12-25T06:38:53.493Z,101273.28
2022-12-25T06:41:24.699Z,101275.06
2022-12-25T06:43:53.763Z,101270.56
2022-12-25T06:46:21.501Z,101258.31
2022-12-25T06:48:49.511Z,101252.72
2022-12-25T06:51:20.737Z,101256.53
2022-12-25T06:53:48.327Z,101254.50
2022-12-25T06:56:17.377Z,101243.94
2022-12-25T06:58:51.267Z,101240.34
2022-12-25T07:01:27.766Z,101230.25
2022-12-25T07:04:01.488Z,101230.50
2022-12-25T07:06:27.985Z,101226.09
2022-12-25T07:08:54.422Z,101222.75
2022-12-25T07:11:21.841Z,101218.63
2022-12-25T07:13:49.745Z,101216.09
2022-12-25T07:16:17.033Z,101205.56
2022-12-25T07:18:43.793Z,101202.84
2022-12-25T07:21:12.980Z,101208.28
2022-12-25T07:23:39.543Z,101213.03
2022-12-25T07:26:06.151Z,101226.34
2022-12-25T07:28:33.336Z,101224.91
2022-12-25T07:31:05.893Z,101238.56
2022-12-25T07:33:32.974Z,101240.94
2022-12-25T07:35:59.696Z,101252.22
2022-12-25T07:38:27.073Z,101254.84
2022-12-25T07:40:54.227Z,101258.28
2022-12-25T07:43:20.713Z,101257.19
2022-12-25T07:45:47.183Z,101240.19
2022-12-25T07:48:16.945Z,101241.03
2022-12-25T07:50:43.606Z,101253.03
2022-12-25T07:53:09.972Z,101268.44
2022-12-25T07:55:36.435Z,101247.28
2022-12-25T07:58:02.836Z,101242.38
2022-12-25T08:00:32.717Z,101248.09
2022-12-25T08:03:00.008Z,101245.09
2022-12-25T08:05:26.785Z,101240.69
2022-12-25T08:07:57.642Z,101240.44
2022-12-25T08:10:25.165Z,101250.91
2022-12-25T08:12:52.019Z,101253.16
2022-12-25T08:15:18.450Z,101257.31
2022-12-25T08:17:44.973Z,101256.22
2022-12-25T08:20:11.683Z,101267.16
2022-12-25T08:22:38.103Z,101269.28
2022-12-25T08:25:04.825Z,101270.28
2022-12-25T08:27:31.154Z,101272.72
2022-12-25T08:29:57.495Z,101268.34
2022-12-25T08:32:23.915Z,101265.47
2022-12-25T08:34:52.714Z,101261.09
2022-12-25T08:37:19.122Z,101257.63
2022-12-25T08:39:46.034Z,101257.38
2022-12-25T08:42:12.455Z,101254.28
2022-12-25T08:44:38.883Z,101237.84
2022-12-25T08:47:05.285Z,101239.88
2022-12-25T08:49:31.839Z,101232.50
2022-12-25T08:51:58.365Z,101228.59
2022-12-25T08:54:25.208Z,101221.16
2022-12-25T08:56:51.595Z,101225.22
2022-12-25T08:59:18.054Z,101225.78
2022-12-25T09:01:44.579Z,101235.19
2022-12-25T09:04:11.046Z,101239.38
2022-12-25T09:06:38.001Z,101247.34
2022-12-25T09:09:04.566Z,101253.94
2022-12-25T09:11:30.902Z,101239.88
2022-12-25T09:13:57.214Z,101243.09
2022-12-25T09:16:23.739Z,101243.53
2022-12-25T09:18:53.814Z,101249.47
2022-12-25T09:21:20.233Z,101251.50
2022-12-25T09:23:46.958Z,101242.69
2022-12-25T09:26:15.792Z,101241.69
2022-12-25T09:28:50.326Z,101239.06
2022-12-25T09:31:18.706Z,101239.50
2022-12-25T09:33:45.268Z,101235.09
2022-12-25T09:36:11.847Z,101244.03
2022-12-25T09:38:38.414Z,101249.84
2022-12-25T09:41:17.067Z,101249.72
2022-12-25T09:44:10.103Z,101254.50
2022-12-25T09:46:44.657Z,101261.03
2022-12-25T09:49:35.571Z,101266.16
2022-12-25T09:52:08.256Z,101268.50
2022-12-25T09:54:41.643Z,101249.47
2022-12-25T09:57:11.844Z,101245.19
2022-12-25T09:59:38.614Z,101233.31
2022-12-25T10:02:49.973Z,101219.44
2022-12-25T10:05:42.917Z,101214.78
2022-12-25T10:08:47.821Z,101215.09
2022-12-25T10:11:32.129Z,101203.53
2022-12-25T10:14:22.682Z,101214.13
2022-12-25T10:17:00.871Z,101215.75
2022-12-25T10:19:36.044Z,101203.28
2022-12-25T10:22:09.252Z,101206.44
2022-12-25T10:24:35.568Z,101213.31
2022-12-25T10:27:07.192Z,101215.16
2022-12-25T10:29:35.274Z,101206.19
2022-12-25T10:32:01.700Z,101190.88
2022-12-25T10:34:28.859Z,101185.47
2022-12-25T10:36:55.495Z,101197.75
2022-12-25T10:39:25.459Z,101194.03
2022-12-25T10:42:19.395Z,101180.94
2022-12-25T10:44:58.465Z,101177.78
2022-12-25T10:47:29.023Z,101184.66
2022-12-25T10:49:56.867Z,101183.97
2022-12-25T10:52:26.289Z,101178.16
2022-12-25T10:54:53.559Z,101179.94
2022-12-25T10:57:22.557Z,101182.28
2022-12-25T10:59:57.792Z,101178.56
2022-12-25T11:02:36.314Z,101184.03
2022-12-25T11:05:28.154Z,101170.56
2022-12-25T11:07:56.037Z,101170.53
2022-12-25T11:10:37.390Z,101171.34
2022-12-25T11:13:08.182Z,101168.84
2022-12-25T11:15:40.887Z,101153.72
2022-12-25T11:18:25.398Z,101144.63
2022-12-25T11:20:54.312Z,101139.84
2022-12-25T11:23:24.075Z,101138.75
2022-12-25T11:26:11.224Z,101127.47
2022-12-25T11:28:40.290Z,101130.66
2022-12-25T11:31:21.615Z,101121.69
2022-12-25T11:33:56.781Z,101111.09
2022-12-25T11:36:38.775Z,101101.31
2022-12-25T11:39:30.808Z,101101.56
2022-12-25T11:42:24.050Z,101095.66
2022-12-25T11:45:02.448Z,101085.16
2022-12-25T11:47:42.034Z,101073.88
2022-12-25T11:50:41.730Z,101072.47
2022-12-25T11:53:19.232Z,101064.34
2022-12-25T11:55:54.670Z,101072.63
2022-12-25T11:58:35.088Z,101053.72
2022-12-25T12:01:05.975Z,101060.63
2022-12-25T12:03:39.760Z,101054.84
2022-12-25T12:06:15.123Z,101044.50
2022-12-25T12:08:42.474Z,101049.88
2022-12-25T12:11:24.769Z,101047.81
2022-12-25T12:13:51.340Z,101038.69
2022-12-25T12:16:17.916Z,101045.88
2022-12-25T12:18:50.422Z,101049.44
2022-12-25T12:21:27.465Z,101048.25
2022-12-25T12:24:05.916Z,101032.22
2022-12-25T12:26:38.157Z,101041.88
2022-12-25T12:29:08.479Z,101035.28
2022-12-25T12:31:40.976Z,101032.34
2022-12-25T12:34:26.948Z,101028.34
2022-12-25T12:37:06.553Z,101029.91
2022-12-25T12:39:39.648Z,101022.03
2022-12-25T12:42:35.817Z,101035.13
2022-12-25T12:45:15.868Z,101026.16
2022-12-25T12:47:47.694Z,101026.59
2022-12-25T12:50:34.204Z,101029.34
2022-12-25T12:53:17.197Z,101019.81
2022-12-25T12:55:43.637Z,101008.75
2022-12-25T12:58:27.680Z,101009.06
2022-12-25T13:01:18.881Z,100993.19
2022-12-25T13:04:14.826Z,100993.88
2022-12-25T13:06:51.001Z,100991.28
2022-12-25T13:09:34.408Z,100991.66
2022-12-25T13:12:06.561Z,100991.28
2022-12-25T13:14:33.250Z,100990.03
2022-12-25T13:16:59.893Z,100983.41
2022-12-25T13:19:28.647Z,100979.41
2022-12-25T13:21:57.043Z,100975.25
2022-12-25T13:24:27.744Z,100977.47
2022-12-25T13:26:54.375Z,100973.88
2022-12-25T13:29:29.162Z,100965.44
2022-12-25T13:31:56.484Z,100971.66
2022-12-25T13:34:27.853Z,100977.88
2022-12-25T13:36:54.648Z,100969.03
2022-12-25T13:39:21.269Z,100959.66
2022-12-25T13:42:05.361Z,100965.56
2022-12-25T13:44:49.030Z,100958.81
2022-12-25T13:47:35.807Z,100952.88
2022-12-25T13:50:33.280Z,100953.88
2022-12-25T13:53:14.077Z,100944.88
2022-12-25T13:55:43.916Z,100944.75
2022-12-25T13:58:22.576Z,100936.47
2022-12-25T14:00:52.653Z,100940.19
2022-12-25T14:03:27.352Z,100935.91
2022-12-25T14:05:57.746Z,100938.81
2022-12-25T14:08:27.816Z,100931.47
2022-12-25T14:10:55.726Z,100936.72
2022-12-25T14:13:28.240Z,100935.25
2022-12-25T14:15:56.576Z,100927.78
2022-12-25T14:18:24.911Z,100917.69
2022-12-25T14:21:04.713Z,100919.50
2022-12-25T14:23:50.296Z,100926.25
2022-12-25T14:26:18.943Z,100915.91
2022-12-25T14:29:11.193Z,100929.53
2022-12-25T14:31:42.391Z,100924.88
2022-12-25T14:34:26.073Z,100922.13
2022-12-25T14:36:53.426Z,100918.69
2022-12-25T14:39:29.865Z,100911.19
2022-12-25T14:41:56.754Z,100914.25
2022-12-25T14:44:34.512Z,100911.50
2022-12-25T14:47:20.747Z,100907.06
2022-12-25T14:49:48.209Z,100907.19
2022-12-25T14:52:17.240Z,100913.28
2022-12-25T14:54:54.308Z,100920.19
2022-12-25T14:57:38.437Z,100920.19
2022-12-25T15:00:20.019Z,100932.16
2022-12-25T15:02:47.661Z,100934.41
2022-12-25T15:05:29.776Z,100924.59
2022-12-25T15:08:19.728Z,100921.69
2022-12-25T15:10:59.684Z,100912.44
2022-12-25T15:13:27.775Z,100914.78
2022-12-25T15:16:08.857Z,100918.69
2022-12-25T15:18:41.574Z,100923.34
2022-12-25T15:21:17.044Z,100925.00
2022-12-25T15:23:44.282Z,100927.78
2022-12-25T15:26:13.723Z,100924.59
2022-12-25T15:28:40.233Z,100933.41
2022-12-25T15:31:30.484Z,100924.28
2022-12-25T15:33:59.647Z,100926.25
2022-12-25T15:36:27.369Z,100928.03
2022-12-25T15:38:54.022Z,100923.09
2022-12-25T15:41:43.461Z,100916.88
2022-12-25T15:44:11.189Z,100916.72
2022-12-25T15:46:37.904Z,100915.22
2022-12-25T15:49:05.499Z,100921.16
2022-12-25T15:51:31.844Z,100911.06
2022-12-25T15:53:59.008Z,100909.31
2022-12-25T15:56:26.726Z,100909.31
2022-12-25T15:58:53.127Z,100913.16
2022-12-25T16:01:21.084Z,100909.56
2022-12-25T16:03:48.208Z,100917.56
2022-12-25T16:06:17.051Z,100910.41
2022-12-25T16:08:44.045Z,100905.72
2022-12-25T16:11:11.279Z,100899.53
2022-12-25T16:13:37.643Z,100902.28
2022-12-25T16:16:05.047Z,100894.28
2022-12-25T16:18:31.583Z,100887.50
2022-12-25T16:20:59.316Z,100887.25
2022-12-25T16:23:25.806Z,100877.72
2022-12-25T16:25:52.203Z,100870.84
2022-12-25T16:28:18.539Z,100866.41
2022-12-25T16:30:45.066Z,100863.78
2022-12-25T16:33:11.795Z,100860.34
2022-12-25T16:35:38.610Z,100860.47
2022-12-25T16:38:05.212Z,100860.75
2022-12-25T16:40:32.207Z,100858.56
2022-12-25T16:42:58.715Z,100853.63
2022-12-25T16:45:25.097Z,100853.31
2022-12-25T16:47:51.526Z,100855.00
2022-12-25T16:50:17.911Z,100855.69
2022-12-25T16:52:44.365Z,100846.16
2022-12-25T16:55:10.900Z,100836.47
2022-12-25T16:57:37.329Z,100840.34
2022-12-25T17:00:04.335Z,100846.72
2022-12-25T17:02:30.878Z,100849.22
2022-12-25T17:04:57.445Z,100837.47
2022-12-25T17:07:23.797Z,100836.66
2022-12-25T17:09:50.392Z,100838.28
2022-12-25T17:12:16.952Z,100832.38
2022-12-25T17:14:43.452Z,100825.47
2022-12-25T17:17:10.126Z,100815.97
2022-12-25T17:19:36.755Z,100827.94
2022-12-25T17:22:03.219Z,100834.16
2022-12-25T17:24:29.979Z,100839.41
2022-12-25T17:26:56.463Z,100840.34
2022-12-25T17:29:23.164Z,100845.78
2022-12-25T17:31:50.172Z,100853.63
2022-12-25T17:34:16.792Z,100852.78
2022-12-25T17:36:43.245Z,100856.09
2022-12-25T17:39:10.596Z,100857.06
2022-12-25T17:41:36.969Z,100859.00
2022-12-25T17:44:03.406Z,100852.78
2022-12-25T17:46:30.995Z,100854.00
2022-12-25T17:48:59.666Z,100854.81
2022-12-25T17:51:26.741Z,100856.34
2022-12-25T17:53:55.745Z,100858.13
2022-12-25T17:56:23.223Z,100846.84
2022-12-25T17:58:57.127Z,100859.94
2022-12-25T18:01:25.528Z,100858.97
2022-12-25T18:03:52.444Z,100859.25
2022-12-25T18:06:21.748Z,100859.94
2022-12-25T18:08:49.454Z,100856.50
2022-12-25T18:11:29.048Z,100851.13
2022-12-25T18:13:57.930Z,100856.50
2022-12-25T18:16:25.910Z,100856.50
2022-12-25T18:18:53.068Z,100861.75
2022-12-25T18:21:21.538Z,100867.53
2022-12-25T18:23:48.241Z,100861.47
2022-12-25T18:26:14.996Z,100852.63
2022-12-25T18:28:42.588Z,100840.50
2022-12-25T18:31:18.818Z,100846.25
2022-12-25T18:33:46.011Z,100840.34
2022-12-25T18:36:13.665Z,100838.56
2022-12-25T18:38:40.239Z,100848.50
2022-12-25T18:41:08.393Z,100853.44
2022-12-25T18:43:52.840Z,100853.06
2022-12-25T18:46:24.068Z,100855.50
2022-12-25T18:48:51.225Z,100858.84
2022-12-25T18:51:17.935Z,100856.06
2022-12-25T18:53:44.806Z,100858.97
2022-12-25T18:56:15.044Z,100863.66
2022-12-25T18:58:42.205Z,100874.28
2022-12-25T19:01:13.358Z,100875.63
2022-12-25T19:03:40.304Z,100871.50
2022-12-25T19:06:06.959Z,100870.53
2022-12-25T19:08:33.393Z,100861.84
2022-12-25T19:10:59.825Z,100853.97
2022-12-25T19:13:26.178Z,100856.75
2022-12-25T19:15:52.648Z,100857.72
2022-12-25T19:18:19.149Z,100858.69
2022-12-25T19:20:45.507Z,100851.81
2022-12-25T19:23:11.917Z,100856.59
2022-12-25T19:25:39.696Z,100847.94
2022-12-25T19:28:06.091Z,100844.63
2022-12-25T19:30:32.481Z,100850.00
2022-12-25T19:32:58.853Z,100830.00
2022-12-25T19:35:25.185Z,100837.72
2022-12-25T19:37:51.793Z,100840.34
2022-12-25T19:40:18.293Z,100835.94
2022-12-25T19:42:44.659Z,100845.56
2022-12-25T19:45:11.096Z,100846.25
2022-12-25T19:47:37.553Z,100843.81
2022-12-25T19:50:04.244Z,100854.97
2022-12-25T19:52:30.638Z,100853.06
2022-12-25T19:54:56.958Z,100852.50
2022-12-25T19:57:23.336Z,100852.06
2022-12-25T19:59:49.869Z,100848.78
2022-12-25T20:02:16.336Z,100842.41
2022-12-25T20:04:42.794Z,100838.00
2022-12-25T20:07:09.136Z,100841.31
2022-12-25T20:09:35.541Z,100840.34
2022-12-25T20:12:02.284Z,100847.09
2022-12-25T20:14:28.674Z,100840.09
2022-12-25T20:16:55.048Z,100837.34
2022-12-25T20:19:21.437Z,100841.31
2022-12-25T20:21:47.872Z,100840.78
2022-12-25T20:24:14.316Z,100856.63
2022-12-25T20:26:41.407Z,100853.47
2022-12-25T20:29:08.009Z,100849.06
2022-12-25T20:31:35.742Z,100861.75
2022-12-25T20:34:10.831Z,100858.69
2022-12-25T20:36:38.353Z,100856.22
2022-12-25T20:39:08.470Z,100865.59
2022-12-25T20:41:35.313Z,100867.78
2022-12-25T20:44:01.917Z,100863.53
2022-12-25T20:46:28.448Z,100862.00
2022-12-25T20:48:55.242Z,100871.41
2022-12-25T20:51:23.573Z,100872.50
2022-12-25T20:53:50.248Z,100875.53
2022-12-25T20:56:19.238Z,100875.41
2022-12-25T20:58:45.700Z,100878.19
2022-12-25T21:01:15.028Z,100876.78
2022-12-25T21:03:42.351Z,100885.59
2022-12-25T21:06:09.811Z,100882.16
2022-12-25T21:08:37.112Z,100875.13
2022-12-25T21:11:04.797Z,100878.03
2022-12-25T21:13:34.771Z,100879.56
2022-12-25T21:16:05.482Z,100886.59
2022-12-25T21:18:31.854Z,100883.56
2022-12-25T21:20:59.335Z,100888.81
2022-12-25T21:23:26.684Z,100885.09
2022-12-25T21:25:53.915Z,100885.09
2022-12-25T21:28:21.255Z,100889.66
2022-12-25T21:30:47.808Z,100895.97
2022-12-25T21:33:37.810Z,100894.88
2022-12-25T21:36:06.346Z,100912.69
2022-12-25T21:38:32.946Z,100920.66
2022-12-25T21:41:04.766Z,100922.72
2022-12-25T21:43:31.378Z,100930.72
2022-12-25T21:46:01.390Z,100934.56
2022-12-25T21:48:27.760Z,100942.97
2022-12-25T21:51:13.136Z,100943.41
2022-12-25T21:53:39.536Z,100939.81
2022-12-25T21:56:06.182Z,100939.25
2022-12-25T21:58:32.731Z,100925.75
2022-12-25T22:01:05.433Z,100921.91
2022-12-25T22:03:31.986Z,100917.63
2022-12-25T22:06:21.466Z,100922.47
2022-12-25T22:08:48.047Z,100931.69
2022-12-25T22:11:32.879Z,100940.66
2022-12-25T22:14:17.714Z,100932.09
2022-12-25T22:17:02.798Z,100927.69
2022-12-25T22:19:42.104Z,100932.50
2022-12-25T22:22:08.578Z,100932.63
2022-12-25T22:24:35.099Z,100926.69
2022-12-25T22:27:01.433Z,100952.63
2022-12-25T22:29:28.003Z,100945.03
2022-12-25T22:31:54.538Z,100955.50
2022-12-25T22:34:20.958Z,100962.25
2022-12-25T22:36:48.961Z,100966.66
2022-12-25T22:39:15.718Z,100967.91
2022-12-25T22:41:42.134Z,100962.81
2022-12-25T22:44:17.536Z,100953.19
2022-12-25T22:46:44.432Z,100950.94
2022-12-25T22:49:10.966Z,100934.97
2022-12-25T22:51:37.429Z,100936.50
2022-12-25T22:54:04.213Z,100934.28
2022-12-25T22:56:30.843Z,100919.53
2022-12-25T22:58:57.260Z,100940.09
2022-12-25T23:01:23.707Z,100928.06
2022-12-25T23:03:53.288Z,100942.84
2022-12-25T23:06:20.120Z,100919.53
2022-12-25T23:08:47.245Z,100923.25
2022-12-25T23:11:14.005Z,100922.31
2022-12-25T23:13:58.702Z,100920.09
2022-12-25T23:16:25.233Z,100929.88
2022-12-25T23:19:10.408Z,100927.38
2022-12-25T23:21:55.885Z,100931.66
2022-12-25T23:24:41.153Z,100930.69
2022-12-25T23:27:07.663Z,100920.09
2022-12-25T23:29:37.088Z,100930.84
2022-12-25T23:32:10.223Z,100930.56
2022-12-25T23:34:39.221Z,100917.59
2022-12-25T23:37:06.257Z,100925.06
2022-12-25T23:39:33.302Z,100910.97
2022-12-25T23:42:00.222Z,100921.31
2022-12-25T23:44:27.831Z,100923.53
2022-12-25T23:46:55.061Z,100931.53
2022-12-25T23:49:23.194Z,100933.88
2022-12-25T23:51:49.855Z,100929.31
2022-12-25T23:54:21.399Z,100945.47
2022-12-25T23:56:47.845Z,100942.72
2022-12-25T23:59:14.309Z,100952.06
